Aviation Digital Data Service (ADDS)

Output produced by METARs form (0635 UTC 27 March 2017)
found at http://www.aviationweather.gov/adds/metars/
 
MRLB 270500Z 2706/2806 08012KT 9999 FEW040 TX35/2718Z TN21/2710Z 
     TEMPO 2719/2803 28005KT FEW030TCU
       
MROC 270500Z 2706/2806 10010KT 9999 FEW030 TX30/2718Z TN19/2710Z 
     TEMPO 2716/2802 24007KT FEW020TCU BKN030 
     PROB30 RA
       
MRLM 270500Z 2706/2806 24006KT 9999 SCT020 TX31/2719Z TN21/2710Z 
     TEMPO 2709/2713 RA BKN018 
     BECMG 2715/2717 06007KT FEW030 
     FM280100 26005KT 9999 SCT020 BKN100
       
MRPV 270500Z 2706/2806 08010KT 9999 FEW030 TX29/2718Z TN19/2710Z 
     TEMPO 2717/2800 23007KT FEW20TCU BKN030 
     PROB30 RA